Forest, Ohio
Current Conditions -  °F | °C
As of 5:24 AM on Sunday 21 Dec 2014 (Local Time) from KFDY Reporting Station
Haze Haze  
Wind Chill: 21°   Ceiling: 1800
Heat Index: 21°   Visibility: 4mi
Dew Point: 18°   Wind: 3mph
Humidity: 88%   Direction: 180°S
Pressure: 30.29"   Gusts: NA
Location:  40.8°N, 83.51°W
Report Text: KFDY 211024Z AUTO 18003KT 4SM BR BKN018 M06/M08 A3029 RMK AO2 T10611078
Loading
Personal Weather Stations






























Interactive Weather Map New forecast layout! Learn more

10-Day Weather Forecast

Advertisements
Track Severe Weather on mobile